createdAt,value
2023-05-19T00:07:50.448Z,10.7
2023-05-19T00:16:05.724Z,10.6
2023-05-19T00:24:21.028Z,10.5
2023-05-19T00:32:36.322Z,10.4
2023-05-19T00:40:51.584Z,10.4
2023-05-19T00:49:06.890Z,10.4
2023-05-19T00:57:22.168Z,10.5
2023-05-19T01:05:37.462Z,10.6
2023-05-19T01:13:52.720Z,10.6
2023-05-19T01:22:08.023Z,10.6
2023-05-19T01:30:23.286Z,10.4
2023-05-19T01:38:38.611Z,10.3
2023-05-19T01:46:53.843Z,10.2
2023-05-19T01:55:09.100Z,10.1
2023-05-19T02:03:24.356Z,10.1
2023-05-19T02:11:39.619Z,10.1
2023-05-19T02:19:54.868Z,10.1
2023-05-19T02:28:10.150Z,10.1
2023-05-19T02:36:25.353Z,10.1
2023-05-19T02:44:40.618Z,10
2023-05-19T02:52:55.891Z,10
2023-05-19T03:01:11.162Z,10
2023-05-19T03:09:26.447Z,9.9
2023-05-19T03:17:41.714Z,9.9
2023-05-19T03:25:56.986Z,9.9
2023-05-19T03:34:12.250Z,9.8
2023-05-19T03:42:27.498Z,9.9
2023-05-19T03:50:42.759Z,9.8
2023-05-19T03:58:57.993Z,9.8
2023-05-19T04:07:13.262Z,9.8
2023-05-19T04:15:28.369Z,9.8
2023-05-19T04:23:43.753Z,9.8
2023-05-19T04:31:59.001Z,9.8
2023-05-19T04:40:14.266Z,9.9
2023-05-19T04:48:29.531Z,9.9
2023-05-19T04:56:44.804Z,10
2023-05-19T05:05:00.092Z,10.2
2023-05-19T05:13:15.377Z,10.5
2023-05-19T05:21:30.705Z,10.7
2023-05-19T05:29:46.002Z,10.9
2023-05-19T05:38:01.350Z,11.2
2023-05-19T05:46:16.706Z,11.5
2023-05-19T05:54:32.080Z,11.9
2023-05-19T06:02:47.464Z,12.3
2023-05-19T06:11:02.856Z,13.1
2023-05-19T06:19:18.376Z,14.7
2023-05-19T06:27:33.972Z,15.6
2023-05-19T06:35:49.572Z,16.9
2023-05-19T06:44:05.230Z,17.4
2023-05-19T06:52:20.968Z,18
2023-05-19T07:00:36.769Z,18.3
2023-05-19T07:08:52.640Z,19.2
2023-05-19T07:17:08.526Z,20.3
2023-05-19T07:25:24.457Z,21.7
2023-05-19T07:33:40.340Z,22
2023-05-19T07:41:56.194Z,22.7
2023-05-19T07:50:12.112Z,22.8
2023-05-19T07:58:27.965Z,22.2
2023-05-19T08:06:43.785Z,20.8
2023-05-19T08:14:59.528Z,17.9
2023-05-19T08:23:15.242Z,17.2
2023-05-19T08:31:30.949Z,16.2
2023-05-19T08:39:46.551Z,16
2023-05-19T08:48:02.210Z,16.8
2023-05-19T08:56:17.922Z,18
2023-05-19T09:04:33.666Z,18.7
2023-05-19T09:12:49.799Z,21.6
2023-05-19T09:21:05.563Z,20.9
2023-05-19T09:29:21.782Z,20.3
2023-05-19T09:37:37.829Z,20.3
2023-05-19T09:45:54.455Z,21.3
2023-05-19T09:54:11.233Z,20.9
2023-05-19T10:02:27.836Z,21.1
2023-05-19T10:10:44.628Z,21
2023-05-19T10:19:01.067Z,19.9
2023-05-19T10:27:17.429Z,19.4
2023-05-19T10:35:33.658Z,19.3
2023-05-19T10:43:49.839Z,19
2023-05-19T10:52:05.880Z,18.7
2023-05-19T11:00:21.879Z,18.9
2023-05-19T11:08:37.654Z,18.4
2023-05-19T11:16:53.693Z,18.6
2023-05-19T11:25:09.579Z,18.3
2023-05-19T11:33:25.308Z,18.1
2023-05-19T11:41:41.190Z,18.5
2023-05-19T11:49:56.883Z,18.8
2023-05-19T11:58:12.715Z,18.4
2023-05-19T12:06:28.439Z,18.3
2023-05-19T12:14:44.272Z,18.4
2023-05-19T12:22:59.934Z,18.5
2023-05-19T12:31:15.633Z,18.3
2023-05-19T12:39:31.284Z,18.4
2023-05-19T12:47:46.945Z,18.3
2023-05-19T12:56:02.757Z,17.7
2023-05-19T13:04:18.223Z,17.5
2023-05-19T13:12:33.914Z,18
2023-05-19T13:20:49.561Z,18
2023-05-19T13:29:05.420Z,18.1
2023-05-19T13:37:21.107Z,18.6
2023-05-19T13:45:36.851Z,18.8
2023-05-19T13:53:52.404Z,18.7
2023-05-19T14:02:08.090Z,18.1
2023-05-19T14:10:23.683Z,18.3
2023-05-19T14:18:39.545Z,18.2
2023-05-19T14:26:55.161Z,17.7
2023-05-19T14:35:10.876Z,17.7
2023-05-19T14:43:26.506Z,17.9
2023-05-19T14:51:41.965Z,17.8
2023-05-19T14:59:57.865Z,17.6
2023-05-19T15:08:13.364Z,17.2
2023-05-19T15:16:28.994Z,17.1
2023-05-19T15:24:44.420Z,17.1
2023-05-19T15:33:00.216Z,16.9
2023-05-19T15:41:15.603Z,17
2023-05-19T15:49:31.363Z,16.9
2023-05-19T15:57:46.760Z,17.2
2023-05-19T16:06:02.535Z,16.6
2023-05-19T16:14:18.026Z,16.4
2023-05-19T16:22:33.578Z,16.2
2023-05-19T16:30:49.034Z,16
2023-05-19T16:39:04.503Z,16.2
2023-05-19T16:47:20.174Z,16.3
2023-05-19T16:55:35.651Z,16
2023-05-19T17:03:51.095Z,15.9
2023-05-19T17:12:06.623Z,15.7
2023-05-19T17:20:22.139Z,15.7
2023-05-19T17:28:37.743Z,15.5
2023-05-19T17:36:53.309Z,15.4
2023-05-19T17:45:08.668Z,15.4
2023-05-19T17:53:24.268Z,15.1
2023-05-19T18:01:39.730Z,15
2023-05-19T18:09:55.204Z,14.9
2023-05-19T18:26:24.077Z,14.9
2023-05-19T18:34:41.480Z,14.8
2023-05-19T18:42:56.786Z,14.6
2023-05-19T18:51:12.309Z,14.4
2023-05-19T18:59:27.790Z,14.4
2023-05-19T19:07:43.270Z,14.3
2023-05-19T19:15:58.557Z,14.2
2023-05-19T19:24:14.089Z,14.1
2023-05-19T19:32:29.446Z,14.2
2023-05-19T19:40:45.047Z,14.1
2023-05-19T19:49:00.319Z,14
2023-05-19T19:57:15.835Z,13.9
2023-05-19T20:05:31.076Z,13.8
2023-05-19T20:13:46.690Z,13.7
2023-05-19T20:22:02.116Z,13.6
2023-05-19T20:30:17.326Z,13.4
2023-05-19T20:38:32.797Z,13.4
2023-05-19T20:46:48.218Z,13.4
2023-05-19T20:55:03.435Z,13.3
2023-05-19T21:03:18.810Z,13.3
2023-05-19T21:11:34.188Z,13.3
2023-05-19T21:19:49.599Z,13.2
2023-05-19T21:28:05.038Z,13.1
2023-05-19T21:36:20.525Z,13.1
2023-05-19T21:44:35.681Z,13
2023-05-19T21:52:51.057Z,12.9
2023-05-19T22:01:06.579Z,12.9
2023-05-19T22:09:21.904Z,12.8
2023-05-19T22:17:37.126Z,12.8
2023-05-19T22:25:52.722Z,12.8
2023-05-19T22:34:07.955Z,12.8
2023-05-19T22:42:23.267Z,12.7
2023-05-19T22:50:38.794Z,12.5
2023-05-19T22:58:53.891Z,12.5
2023-05-19T23:07:09.426Z,12.4
2023-05-19T23:15:24.789Z,12.4
2023-05-19T23:23:39.983Z,12.3
2023-05-19T23:31:55.267Z,12.3
2023-05-19T23:40:10.783Z,12.3
2023-05-19T23:48:25.976Z,12.3
2023-05-19T23:56:41.488Z,12.2
